C. Angelo — WCZ5866 — position and weather

sailwx.info

Track history (hours):
 
Tides and Currents Weather Stations Pressure Air Temp Water Temp Dewpoint Dewpoint Depression Visibility Wind Speed Wind Dir Waves Ship Positions

C. Angelo

Owner: G T 110 INC, NEW HAVEN, CT. More information available from US FCC via Universal Licensing System and Coast Guard Vessel Documentation Center.

Last reported at 2017-Dec-11 17:00 UTC. Time now 2017-Dec-12 04:50 UTC.
Position N 41°15' W 072°19'.

MMSI: 366988420.

Date/timePositionNaut miles runAvg speedWind from/ knotsBaromVisibWave heightAir tempDewpointWater temp
2017-Dec-11 17:00N 41°15' W 072°19'4 8.6
2017-Dec-11 16:30N 41°14' W 072°24'4 8.9
2017-Dec-11 16:00N 41°14' W 072°30'4 8.9
2017-Dec-11 15:30N 41°14' W 072°36'5 9.1
2017-Dec-11 15:00N 41°14' W 072°42'5 9.1
2017-Dec-11 14:30N 41°14' W 072°48'  
2017-Dec-08 05:55N 40°54' W 073°42'410.9
2017-Dec-08 05:31N 40°51' W 073°46'5 9.3
2017-Dec-08 05:00N 40°48' W 073°51'612.0
2017-Dec-08 04:30N 40°45' W 073°58'612.2
2017-Dec-08 04:01N 40°40' W 074°03'5 9.8
2017-Dec-08 03:30N 40°39' W 074°09'2 4.5
2017-Dec-08 03:00N 40°38' W 074°12'0 0.0
2017-Dec-08 02:30N 40°38' W 074°12'0 0.0
2017-Dec-08 02:00N 40°38' W 074°12'0 0.0
2017-Dec-08 01:30N 40°38' W 074°12'0 0.0
2017-Dec-08 01:00N 40°38' W 074°12'0 0.0
2017-Dec-08 00:30N 40°38' W 074°12'0 0.0
2017-Dec-08 00:00N 40°38' W 074°12'0 0.0
2017-Dec-07 23:30N 40°38' W 074°12'0 0.0
2017-Dec-07 23:00N 40°38' W 074°12'0 0.0
2017-Dec-07 22:29N 40°38' W 074°12'1 2.9
2017-Dec-07 22:00N 40°39' W 074°10'0 0.0
2017-Dec-07 21:30N 40°39' W 074°10'0 0.0
2017-Dec-07 21:00N 40°39' W 074°10'0 0.5
2017-Dec-07 20:30N 40°39' W 074°10'2 4.9
2017-Dec-07 20:01N 40°39' W 074°07'0 0.3
2017-Dec-07 19:30N 40°39' W 074°07'3 5.9
2017-Dec-07 19:00N 40°39' W 074°03'4 8.7
2017-Dec-07 18:31N 40°42' W 073°60'5 9.4
2017-Dec-07 18:00N 40°46' W 073°57'4 8.4
2017-Dec-07 17:29N 40°48' W 073°51'4 7.4
2017-Dec-07 17:00N 40°49' W 073°47'5 9.7
2017-Dec-07 16:30N 40°53' W 073°43'  
Track history (hours):
 
Tides and Currents Weather Stations Pressure Air Temp Water Temp Dewpoint Dewpoint Depression Visibility Wind Speed Wind Dir Waves Ship Positions

C. Angelo

Owner: G T 110 INC, NEW HAVEN, CT. More information available from US FCC via Universal Licensing System and Coast Guard Vessel Documentation Center.

Last reported at 2017-Dec-11 17:00 UTC. Time now 2017-Dec-12 04:50 UTC.
Position N 41°15' W 072°19'.

MMSI: 366988420.

Date/timePositionNaut miles runAvg speedWind from/ knotsBaromVisibWave heightAir tempDewpointWater temp
2017-Dec-11 17:00N 41°15' W 072°19'4 8.6
2017-Dec-11 16:30N 41°14' W 072°24'4 8.9
2017-Dec-11 16:00N 41°14' W 072°30'4 8.9
2017-Dec-11 15:30N 41°14' W 072°36'5 9.1
2017-Dec-11 15:00N 41°14' W 072°42'5 9.1
2017-Dec-11 14:30N 41°14' W 072°48'  
2017-Dec-08 05:55N 40°54' W 073°42'410.9
2017-Dec-08 05:31N 40°51' W 073°46'5 9.3
2017-Dec-08 05:00N 40°48' W 073°51'612.0
2017-Dec-08 04:30N 40°45' W 073°58'612.2
2017-Dec-08 04:01N 40°40' W 074°03'5 9.8
2017-Dec-08 03:30N 40°39' W 074°09'2 4.5
2017-Dec-08 03:00N 40°38' W 074°12'0 0.0
2017-Dec-08 02:30N 40°38' W 074°12'0 0.0
2017-Dec-08 02:00N 40°38' W 074°12'0 0.0
2017-Dec-08 01:30N 40°38' W 074°12'0 0.0
2017-Dec-08 01:00N 40°38' W 074°12'0 0.0
2017-Dec-08 00:30N 40°38' W 074°12'0 0.0
2017-Dec-08 00:00N 40°38' W 074°12'0 0.0
2017-Dec-07 23:30N 40°38' W 074°12'0 0.0
2017-Dec-07 23:00N 40°38' W 074°12'0 0.0
2017-Dec-07 22:29N 40°38' W 074°12'1 2.9
2017-Dec-07 22:00N 40°39' W 074°10'0 0.0
2017-Dec-07 21:30N 40°39' W 074°10'0 0.0
2017-Dec-07 21:00N 40°39' W 074°10'0 0.5
2017-Dec-07 20:30N 40°39' W 074°10'2 4.9
2017-Dec-07 20:01N 40°39' W 074°07'0 0.3
2017-Dec-07 19:30N 40°39' W 074°07'3 5.9
2017-Dec-07 19:00N 40°39' W 074°03'4 8.7
2017-Dec-07 18:31N 40°42' W 073°60'5 9.4
2017-Dec-07 18:00N 40°46' W 073°57'4 8.4
2017-Dec-07 17:29N 40°48' W 073°51'4 7.4
2017-Dec-07 17:00N 40°49' W 073°47'5 9.7
2017-Dec-07 16:30N 40°53' W 073°43'  

Dump ship's entire track history